sensor_id;sensor_type;location;lat;lon;timestamp;pressure;altitude;pressure_sealevel;temperature;humidity
78117;BME280;69042;59.120;37.904;2023-08-07T00:00:40;100369.53;;;23.57;70.59
78117;BME280;69042;59.120;37.904;2023-08-07T00:03:06;100362.13;;;23.51;70.26
78117;BME280;69042;59.120;37.904;2023-08-07T00:05:33;100366.91;;;23.47;70.74
78117;BME280;69042;59.120;37.904;2023-08-07T00:07:59;100366.50;;;23.42;70.69
78117;BME280;69042;59.120;37.904;2023-08-07T00:10:26;100364.09;;;23.39;70.55
78117;BME280;69042;59.120;37.904;2023-08-07T00:12:52;100368.03;;;23.35;70.88
78117;BME280;69042;59.120;37.904;2023-08-07T00:15:19;100366.75;;;23.30;70.82
78117;BME280;69042;59.120;37.904;2023-08-07T00:17:45;100366.34;;;23.24;70.73
78117;BME280;69042;59.120;37.904;2023-08-07T00:20:11;100369.44;;;23.20;71.02
78117;BME280;69042;59.120;37.904;2023-08-07T00:22:38;100370.00;;;23.14;70.96
78117;BME280;69042;59.120;37.904;2023-08-07T00:25:04;100372.25;;;23.09;71.08
78117;BME280;69042;59.120;37.904;2023-08-07T00:27:31;100370.00;;;23.04;70.96
78117;BME280;69042;59.120;37.904;2023-08-07T00:29:57;100371.25;;;23.00;71.29
78117;BME280;69042;59.120;37.904;2023-08-07T00:32:24;100382.28;;;22.95;71.50
78117;BME280;69042;59.120;37.904;2023-08-07T00:34:50;100378.91;;;22.93;71.19
78117;BME280;69042;59.120;37.904;2023-08-07T00:37:16;100383.53;;;22.91;71.47
78117;BME280;69042;59.120;37.904;2023-08-07T00:39:43;100383.81;;;22.88;71.70
78117;BME280;69042;59.120;37.904;2023-08-07T00:42:10;100379.75;;;22.84;71.83
78117;BME280;69042;59.120;37.904;2023-08-07T00:44:36;100384.38;;;22.82;71.62
78117;BME280;69042;59.120;37.904;2023-08-07T00:47:03;100380.28;;;22.78;72.26
78117;BME280;69042;59.120;37.904;2023-08-07T00:49:29;100383.22;;;22.75;72.13
78117;BME280;69042;59.120;37.904;2023-08-07T00:51:56;100375.06;;;22.66;72.36
78117;BME280;69042;59.120;37.904;2023-08-07T00:54:22;100371.56;;;22.66;72.33
78117;BME280;69042;59.120;37.904;2023-08-07T00:56:49;100376.31;;;22.62;72.37
78117;BME280;69042;59.120;37.904;2023-08-07T00:59:16;100373.94;;;22.59;72.51
78117;BME280;69042;59.120;37.904;2023-08-07T01:01:42;100366.06;;;22.58;72.52
78117;BME280;69042;59.120;37.904;2023-08-07T01:04:08;100372.63;;;22.54;72.89
78117;BME280;69042;59.120;37.904;2023-08-07T01:06:35;100367.47;;;22.52;72.93
78117;BME280;69042;59.120;37.904;2023-08-07T01:09:01;100362.56;;;22.48;73.15
78117;BME280;69042;59.120;37.904;2023-08-07T01:17:10;100366.56;;;22.42;73.35
78117;BME280;69042;59.120;37.904;2023-08-07T01:19:38;100362.38;;;22.39;73.56
78117;BME280;69042;59.120;37.904;2023-08-07T01:22:13;100359.00;;;22.37;73.72
78117;BME280;69042;59.120;37.904;2023-08-07T01:24:42;100364.31;;;22.37;73.58
78117;BME280;69042;59.120;37.904;2023-08-07T01:32:44;100351.84;;;22.38;73.92
78117;BME280;69042;59.120;37.904;2023-08-07T01:37:42;100355.38;;;22.38;73.83
78117;BME280;69042;59.120;37.904;2023-08-07T01:40:10;100350.88;;;22.39;74.04
78117;BME280;69042;59.120;37.904;2023-08-07T01:42:37;100350.75;;;22.40;73.79
78117;BME280;69042;59.120;37.904;2023-08-07T01:45:07;100362.97;;;22.43;73.92
78117;BME280;69042;59.120;37.904;2023-08-07T01:47:34;100354.69;;;22.46;73.56
78117;BME280;69042;59.120;37.904;2023-08-07T01:50:00;100359.72;;;22.49;73.54
78117;BME280;69042;59.120;37.904;2023-08-07T01:52:27;100359.47;;;22.52;73.66
78117;BME280;69042;59.120;37.904;2023-08-07T01:54:53;100354.00;;;22.54;73.03
78117;BME280;69042;59.120;37.904;2023-08-07T01:57:20;100358.25;;;22.56;73.43
78117;BME280;69042;59.120;37.904;2023-08-07T01:59:46;100349.13;;;22.59;73.67
78117;BME280;69042;59.120;37.904;2023-08-07T02:02:12;100351.50;;;22.62;73.22
78117;BME280;69042;59.120;37.904;2023-08-07T02:04:39;100350.53;;;22.63;73.32
78117;BME280;69042;59.120;37.904;2023-08-07T02:07:05;100349.44;;;22.65;73.16
78117;BME280;69042;59.120;37.904;2023-08-07T02:09:31;100355.47;;;22.68;73.17
78117;BME280;69042;59.120;37.904;2023-08-07T02:11:58;100361.34;;;22.71;72.96
78117;BME280;69042;59.120;37.904;2023-08-07T02:14:24;100361.91;;;22.75;73.12
78117;BME280;69042;59.120;37.904;2023-08-07T02:16:50;100367.09;;;22.76;73.10
78117;BME280;69042;59.120;37.904;2023-08-07T02:19:17;100354.47;;;22.78;72.99
78117;BME280;69042;59.120;37.904;2023-08-07T02:21:43;100364.88;;;22.81;72.65
78117;BME280;69042;59.120;37.904;2023-08-07T02:24:09;100356.72;;;22.83;72.64
78117;BME280;69042;59.120;37.904;2023-08-07T02:26:37;100355.47;;;22.87;72.48
78117;BME280;69042;59.120;37.904;2023-08-07T02:29:03;100353.66;;;22.87;72.18
78117;BME280;69042;59.120;37.904;2023-08-07T02:31:31;100355.63;;;22.85;72.39
78117;BME280;69042;59.120;37.904;2023-08-07T02:33:58;100348.31;;;22.87;72.46
78117;BME280;69042;59.120;37.904;2023-08-07T02:36:24;100353.53;;;22.89;72.68
78117;BME280;69042;59.120;37.904;2023-08-07T02:38:51;100359.44;;;22.93;72.43
78117;BME280;69042;59.120;37.904;2023-08-07T02:41:17;100356.59;;;22.94;72.56
78117;BME280;69042;59.120;37.904;2023-08-07T02:43:43;100360.84;;;22.97;72.32
78117;BME280;69042;59.120;37.904;2023-08-07T02:46:09;100356.09;;;23.00;72.29
78117;BME280;69042;59.120;37.904;2023-08-07T02:48:36;100361.16;;;23.03;72.38
78117;BME280;69042;59.120;37.904;2023-08-07T02:51:02;100360.03;;;23.06;72.29
78117;BME280;69042;59.120;37.904;2023-08-07T02:53:29;100360.75;;;23.08;72.08
78117;BME280;69042;59.120;37.904;2023-08-07T02:55:55;100361.28;;;23.12;72.23
78117;BME280;69042;59.120;37.904;2023-08-07T02:58:21;100365.50;;;23.14;72.19
78117;BME280;69042;59.120;37.904;2023-08-07T03:00:48;100367.91;;;23.17;71.68
78117;BME280;69042;59.120;37.904;2023-08-07T03:03:14;100372.94;;;23.20;72.07
78117;BME280;69042;59.120;37.904;2023-08-07T03:05:50;100365.66;;;23.22;71.80
78117;BME280;69042;59.120;37.904;2023-08-07T03:08:17;100365.22;;;23.27;71.98
78117;BME280;69042;59.120;37.904;2023-08-07T03:10:54;100361.31;;;23.31;71.45
78117;BME280;69042;59.120;37.904;2023-08-07T03:13:26;100373.38;;;23.35;71.63
78117;BME280;69042;59.120;37.904;2023-08-07T03:16:00;100367.63;;;23.40;71.19
78117;BME280;69042;59.120;37.904;2023-08-07T03:18:30;100369.00;;;23.44;70.99
78117;BME280;69042;59.120;37.904;2023-08-07T03:20:57;100365.06;;;23.48;71.16
78117;BME280;69042;59.120;37.904;2023-08-07T03:23:24;100368.00;;;23.55;71.03
78117;BME280;69042;59.120;37.904;2023-08-07T03:26:02;100368.56;;;23.58;70.32
78117;BME280;69042;59.120;37.904;2023-08-07T03:28:29;100363.50;;;23.65;70.74
78117;BME280;69042;59.120;37.904;2023-08-07T03:30:55;100367.59;;;23.69;70.15
78117;BME280;69042;59.120;37.904;2023-08-07T03:33:22;100369.69;;;23.75;70.00
78117;BME280;69042;59.120;37.904;2023-08-07T03:35:48;100361.25;;;23.80;70.09
78117;BME280;69042;59.120;37.904;2023-08-07T03:38:15;100364.19;;;23.86;69.61
78117;BME280;69042;59.120;37.904;2023-08-07T03:40:41;100368.13;;;23.92;69.57
78117;BME280;69042;59.120;37.904;2023-08-07T03:43:09;100368.53;;;23.97;69.27
78117;BME280;69042;59.120;37.904;2023-08-07T03:45:36;100363.44;;;24.04;69.32
78117;BME280;69042;59.120;37.904;2023-08-07T03:48:03;100366.50;;;24.09;68.82
78117;BME280;69042;59.120;37.904;2023-08-07T03:50:29;100374.63;;;24.17;69.22
78117;BME280;69042;59.120;37.904;2023-08-07T03:52:56;100371.53;;;24.22;68.63
78117;BME280;69042;59.120;37.904;2023-08-07T03:55:24;100368.28;;;24.28;68.50
78117;BME280;69042;59.120;37.904;2023-08-07T03:57:50;100373.03;;;24.34;68.74
78117;BME280;69042;59.120;37.904;2023-08-07T04:00:17;100374.25;;;24.40;68.58
78117;BME280;69042;59.120;37.904;2023-08-07T04:02:43;100379.16;;;24.44;67.95
78117;BME280;69042;59.120;37.904;2023-08-07T04:05:12;100379.44;;;24.51;68.12
78117;BME280;69042;59.120;37.904;2023-08-07T04:07:41;100374.47;;;24.56;67.78
78117;BME280;69042;59.120;37.904;2023-08-07T04:10:08;100375.75;;;24.62;68.01
78117;BME280;69042;59.120;37.904;2023-08-07T04:12:34;100378.66;;;24.68;67.70
78117;BME280;69042;59.120;37.904;2023-08-07T04:15:00;100372.03;;;24.72;67.54
78117;BME280;69042;59.120;37.904;2023-08-07T04:17:27;100375.09;;;24.78;67.10
78117;BME280;69042;59.120;37.904;2023-08-07T04:19:54;100380.81;;;24.83;66.91
78117;BME280;69042;59.120;37.904;2023-08-07T04:22:20;100375.00;;;24.87;67.02
78117;BME280;69042;59.120;37.904;2023-08-07T04:24:47;100376.94;;;24.95;67.00
78117;BME280;69042;59.120;37.904;2023-08-07T04:27:13;100373.66;;;25.01;67.22
78117;BME280;69042;59.120;37.904;2023-08-07T04:29:39;100373.19;;;25.06;66.88
78117;BME280;69042;59.120;37.904;2023-08-07T04:32:06;100375.25;;;25.12;66.38
78117;BME280;69042;59.120;37.904;2023-08-07T04:34:32;100366.78;;;25.17;66.89
78117;BME280;69042;59.120;37.904;2023-08-07T04:36:59;100370.72;;;25.22;66.30
78117;BME280;69042;59.120;37.904;2023-08-07T04:39:26;100378.44;;;25.25;66.69
78117;BME280;69042;59.120;37.904;2023-08-07T04:41:52;100381.47;;;25.30;66.14
78117;BME280;69042;59.120;37.904;2023-08-07T04:44:19;100373.84;;;25.36;66.25
78117;BME280;69042;59.120;37.904;2023-08-07T04:46:45;100381.25;;;25.42;66.46
78117;BME280;69042;59.120;37.904;2023-08-07T04:49:11;100381.47;;;25.48;66.16
78117;BME280;69042;59.120;37.904;2023-08-07T04:51:38;100382.84;;;25.52;65.81
78117;BME280;69042;59.120;37.904;2023-08-07T04:54:04;100375.19;;;25.58;65.94
78117;BME280;69042;59.120;37.904;2023-08-07T04:56:31;100372.03;;;25.62;65.60
78117;BME280;69042;59.120;37.904;2023-08-07T04:58:57;100375.94;;;25.68;65.84
78117;BME280;69042;59.120;37.904;2023-08-07T05:01:23;100376.31;;;25.73;65.54
78117;BME280;69042;59.120;37.904;2023-08-07T05:03:50;100369.50;;;25.79;65.84
78117;BME280;69042;59.120;37.904;2023-08-07T05:06:16;100365.66;;;25.81;65.50
78117;BME280;69042;59.120;37.904;2023-08-07T05:08:42;100374.19;;;25.85;65.56
78117;BME280;69042;59.120;37.904;2023-08-07T05:11:08;100365.06;;;25.87;65.24
78117;BME280;69042;59.120;37.904;2023-08-07T05:13:35;100369.94;;;25.92;65.76
78117;BME280;69042;59.120;37.904;2023-08-07T05:16:01;100357.75;;;25.98;65.04
78117;BME280;69042;59.120;37.904;2023-08-07T05:18:28;100361.94;;;26.00;65.57
78117;BME280;69042;59.120;37.904;2023-08-07T05:20:54;100366.00;;;26.04;64.95
78117;BME280;69042;59.120;37.904;2023-08-07T05:23:20;100363.66;;;26.09;64.98
78117;BME280;69042;59.120;37.904;2023-08-07T05:25:47;100360.50;;;26.14;64.89
78117;BME280;69042;59.120;37.904;2023-08-07T05:28:13;100361.03;;;26.17;64.04
78117;BME280;69042;59.120;37.904;2023-08-07T05:30:40;100359.88;;;26.20;63.97
78117;BME280;69042;59.120;37.904;2023-08-07T05:33:06;100350.53;;;26.24;64.30
78117;BME280;69042;59.120;37.904;2023-08-07T05:35:32;100353.75;;;26.28;64.05
78117;BME280;69042;59.120;37.904;2023-08-07T05:37:58;100353.25;;;26.32;64.18
78117;BME280;69042;59.120;37.904;2023-08-07T05:40:25;100358.97;;;26.37;64.00
78117;BME280;69042;59.120;37.904;2023-08-07T05:42:51;100354.97;;;26.42;63.55
78117;BME280;69042;59.120;37.904;2023-08-07T05:45:17;100353.47;;;26.47;63.61
78117;BME280;69042;59.120;37.904;2023-08-07T05:47:44;100352.00;;;26.53;63.19
78117;BME280;69042;59.120;37.904;2023-08-07T05:50:10;100350.69;;;26.57;63.24
78117;BME280;69042;59.120;37.904;2023-08-07T05:52:36;100360.94;;;26.62;62.78
78117;BME280;69042;59.120;37.904;2023-08-07T05:55:03;100355.09;;;26.66;62.83
78117;BME280;69042;59.120;37.904;2023-08-07T05:57:30;100360.09;;;26.69;62.90
78117;BME280;69042;59.120;37.904;2023-08-07T05:59:56;100356.94;;;26.74;62.89
78117;BME280;69042;59.120;37.904;2023-08-07T06:02:22;100351.06;;;26.78;62.54
78117;BME280;69042;59.120;37.904;2023-08-07T06:04:49;100354.28;;;26.82;62.46
78117;BME280;69042;59.120;37.904;2023-08-07T06:07:15;100350.44;;;26.85;62.40
78117;BME280;69042;59.120;37.904;2023-08-07T06:09:42;100358.13;;;26.88;62.09
78117;BME280;69042;59.120;37.904;2023-08-07T06:12:08;100351.59;;;26.90;61.75
78117;BME280;69042;59.120;37.904;2023-08-07T06:14:34;100350.28;;;26.94;62.18
78117;BME280;69042;59.120;37.904;2023-08-07T06:17:01;100346.25;;;26.98;62.05
78117;BME280;69042;59.120;37.904;2023-08-07T06:19:29;100346.59;;;27.04;61.24
78117;BME280;69042;59.120;37.904;2023-08-07T06:21:55;100342.59;;;27.08;60.98
78117;BME280;69042;59.120;37.904;2023-08-07T06:24:22;100349.13;;;27.13;60.61
78117;BME280;69042;59.120;37.904;2023-08-07T06:26:49;100340.06;;;27.14;60.19
78117;BME280;69042;59.120;37.904;2023-08-07T06:29:15;100343.09;;;27.19;59.79
78117;BME280;69042;59.120;37.904;2023-08-07T06:31:42;100345.47;;;27.23;60.34
78117;BME280;69042;59.120;37.904;2023-08-07T06:34:08;100333.38;;;27.27;59.68
78117;BME280;69042;59.120;37.904;2023-08-07T06:36:36;100339.25;;;27.30;60.06
78117;BME280;69042;59.120;37.904;2023-08-07T06:39:02;100333.41;;;27.35;59.38
78117;BME280;69042;59.120;37.904;2023-08-07T06:41:30;100343.47;;;27.41;59.83
78117;BME280;69042;59.120;37.904;2023-08-07T06:43:56;100334.22;;;27.44;59.29
78117;BME280;69042;59.120;37.904;2023-08-07T06:46:23;100332.69;;;27.49;59.26
78117;BME280;69042;59.120;37.904;2023-08-07T06:48:52;100332.38;;;27.52;59.16
78117;BME280;69042;59.120;37.904;2023-08-07T06:51:19;100326.50;;;27.57;58.82
78117;BME280;69042;59.120;37.904;2023-08-07T06:53:45;100332.88;;;27.64;58.83
78117;BME280;69042;59.120;37.904;2023-08-07T06:56:11;100329.00;;;27.67;59.02
78117;BME280;69042;59.120;37.904;2023-08-07T06:58:37;100334.53;;;27.73;58.51
78117;BME280;69042;59.120;37.904;2023-08-07T07:01:04;100333.19;;;27.77;58.06
78117;BME280;69042;59.120;37.904;2023-08-07T07:03:30;100333.69;;;27.81;57.74
78117;BME280;69042;59.120;37.904;2023-08-07T07:05:56;100326.13;;;27.85;57.50
78117;BME280;69042;59.120;37.904;2023-08-07T07:08:23;100325.63;;;27.89;57.52
78117;BME280;69042;59.120;37.904;2023-08-07T07:10:49;100328.63;;;27.94;56.97
78117;BME280;69042;59.120;37.904;2023-08-07T07:13:15;100326.44;;;27.98;56.74
78117;BME280;69042;59.120;37.904;2023-08-07T07:15:41;100325.91;;;28.02;56.67
78117;BME280;69042;59.120;37.904;2023-08-07T07:18:08;100326.22;;;28.08;56.56
78117;BME280;69042;59.120;37.904;2023-08-07T07:20:34;100325.91;;;28.11;56.31
78117;BME280;69042;59.120;37.904;2023-08-07T07:23:00;100324.34;;;28.16;55.81
78117;BME280;69042;59.120;37.904;2023-08-07T07:25:27;100331.72;;;28.22;55.13
78117;BME280;69042;59.120;37.904;2023-08-07T07:27:53;100333.88;;;28.27;55.21
78117;BME280;69042;59.120;37.904;2023-08-07T07:30:19;100329.03;;;28.31;54.76
78117;BME280;69042;59.120;37.904;2023-08-07T07:32:46;100328.50;;;28.35;54.60
78117;BME280;69042;59.120;37.904;2023-08-07T07:35:16;100329.97;;;28.38;54.74
78117;BME280;69042;59.120;37.904;2023-08-07T07:37:43;100325.28;;;28.40;54.80
78117;BME280;69042;59.120;37.904;2023-08-07T07:40:09;100324.75;;;28.44;54.93
78117;BME280;69042;59.120;37.904;2023-08-07T07:42:36;100318.88;;;28.49;54.55
78117;BME280;69042;59.120;37.904;2023-08-07T07:45:02;100314.81;;;28.53;54.22
78117;BME280;69042;59.120;37.904;2023-08-07T07:47:30;100318.81;;;28.57;54.17
78117;BME280;69042;59.120;37.904;2023-08-07T07:50:22;100317.28;;;28.63;54.20
78117;BME280;69042;59.120;37.904;2023-08-07T07:52:49;100321.28;;;28.67;53.96
78117;BME280;69042;59.120;37.904;2023-08-07T07:55:15;100326.47;;;28.69;53.59
78117;BME280;69042;59.120;37.904;2023-08-07T07:57:42;100317.91;;;28.73;53.28
78117;BME280;69042;59.120;37.904;2023-08-07T08:00:09;100321.22;;;28.75;53.16
78117;BME280;69042;59.120;37.904;2023-08-07T08:02:40;100320.06;;;28.78;53.16
78117;BME280;69042;59.120;37.904;2023-08-07T08:05:09;100318.66;;;28.82;53.03
78117;BME280;69042;59.120;37.904;2023-08-07T08:07:39;100317.50;;;28.84;52.71
78117;BME280;69042;59.120;37.904;2023-08-07T08:10:07;100320.63;;;28.88;52.93
78117;BME280;69042;59.120;37.904;2023-08-07T08:12:35;100315.91;;;28.90;52.56
78117;BME280;69042;59.120;37.904;2023-08-07T08:15:03;100310.38;;;28.92;52.33
78117;BME280;69042;59.120;37.904;2023-08-07T08:17:29;100320.41;;;28.98;52.31
78117;BME280;69042;59.120;37.904;2023-08-07T08:19:56;100320.22;;;28.99;51.91
78117;BME280;69042;59.120;37.904;2023-08-07T08:22:23;100319.41;;;28.99;52.20
78117;BME280;69042;59.120;37.904;2023-08-07T08:24:50;100321.25;;;28.98;51.94
78117;BME280;69042;59.120;37.904;2023-08-07T08:27:16;100313.84;;;29.00;51.67
78117;BME280;69042;59.120;37.904;2023-08-07T08:29:44;100326.25;;;29.01;51.82
78117;BME280;69042;59.120;37.904;2023-08-07T08:32:11;100314.31;;;29.04;52.07
78117;BME280;69042;59.120;37.904;2023-08-07T08:34:38;100314.13;;;29.05;51.42
78117;BME280;69042;59.120;37.904;2023-08-07T08:37:04;100323.88;;;29.06;51.13
78117;BME280;69042;59.120;37.904;2023-08-07T08:39:34;100318.34;;;29.08;50.34
78117;BME280;69042;59.120;37.904;2023-08-07T08:42:01;100308.25;;;29.10;50.49
78117;BME280;69042;59.120;37.904;2023-08-07T08:44:29;100313.63;;;29.10;50.32
78117;BME280;69042;59.120;37.904;2023-08-07T08:46:59;100308.91;;;29.12;50.26
78117;BME280;69042;59.120;37.904;2023-08-07T08:49:31;100319.94;;;29.17;50.33
78117;BME280;69042;59.120;37.904;2023-08-07T08:51:59;100323.31;;;29.19;50.09
78117;BME280;69042;59.120;37.904;2023-08-07T08:54:26;100318.56;;;29.21;50.04
78117;BME280;69042;59.120;37.904;2023-08-07T08:56:52;100317.19;;;29.25;49.85
78117;BME280;69042;59.120;37.904;2023-08-07T08:59:20;100316.81;;;29.29;49.84
78117;BME280;69042;59.120;37.904;2023-08-07T09:01:48;100313.75;;;29.32;49.75
78117;BME280;69042;59.120;37.904;2023-08-07T09:04:18;100306.16;;;29.35;49.99
78117;BME280;69042;59.120;37.904;2023-08-07T09:06:44;100308.47;;;29.38;49.89
78117;BME280;69042;59.120;37.904;2023-08-07T09:09:13;100304.63;;;29.41;49.96
78117;BME280;69042;59.120;37.904;2023-08-07T09:11:41;100299.84;;;29.43;49.97
78117;BME280;69042;59.120;37.904;2023-08-07T09:14:08;100303.88;;;29.47;50.29
78117;BME280;69042;59.120;37.904;2023-08-07T09:16:36;100295.44;;;29.50;49.63
78117;BME280;69042;59.120;37.904;2023-08-07T09:19:02;100297.09;;;29.51;49.13
78117;BME280;69042;59.120;37.904;2023-08-07T09:21:29;100298.13;;;29.50;49.48
78117;BME280;69042;59.120;37.904;2023-08-07T09:23:55;100299.41;;;29.54;49.50
78117;BME280;69042;59.120;37.904;2023-08-07T09:26:22;100302.41;;;29.59;49.11
78117;BME280;69042;59.120;37.904;2023-08-07T09:28:52;100290.25;;;29.63;48.62
78117;BME280;69042;59.120;37.904;2023-08-07T09:31:20;100287.19;;;29.66;48.94
78117;BME280;69042;59.120;37.904;2023-08-07T09:33:47;100288.69;;;29.69;48.45
78117;BME280;69042;59.120;37.904;2023-08-07T09:36:17;100285.44;;;29.74;48.28
78117;BME280;69042;59.120;37.904;2023-08-07T09:38:49;100289.28;;;29.79;48.38
78117;BME280;69042;59.120;37.904;2023-08-07T09:41:19;100286.66;;;29.86;48.31
78117;BME280;69042;59.120;37.904;2023-08-07T09:43:46;100289.63;;;29.91;48.16
78117;BME280;69042;59.120;37.904;2023-08-07T09:46:12;100280.50;;;29.92;48.43
78117;BME280;69042;59.120;37.904;2023-08-07T09:48:40;100274.56;;;29.97;48.05
78117;BME280;69042;59.120;37.904;2023-08-07T09:51:07;100267.44;;;30.04;48.01
78117;BME280;69042;59.120;37.904;2023-08-07T09:53:34;100269.34;;;30.10;47.36
78117;BME280;69042;59.120;37.904;2023-08-07T09:56:01;100271.47;;;30.15;47.50
78117;BME280;69042;59.120;37.904;2023-08-07T09:58:28;100260.13;;;30.19;46.86
78117;BME280;69042;59.120;37.904;2023-08-07T10:00:55;100258.28;;;30.20;46.80
78117;BME280;69042;59.120;37.904;2023-08-07T10:03:26;100257.25;;;30.21;47.15
78117;BME280;69042;59.120;37.904;2023-08-07T10:05:52;100254.38;;;30.22;46.34
78117;BME280;69042;59.120;37.904;2023-08-07T10:08:19;100254.16;;;30.24;46.41
78117;BME280;69042;59.120;37.904;2023-08-07T10:10:47;100257.50;;;30.26;46.77
78117;BME280;69042;59.120;37.904;2023-08-07T10:13:13;100256.16;;;30.30;47.09
78117;BME280;69042;59.120;37.904;2023-08-07T10:15:40;100253.09;;;30.33;47.24
78117;BME280;69042;59.120;37.904;2023-08-07T10:18:09;100248.78;;;30.39;46.39
78117;BME280;69042;59.120;37.904;2023-08-07T10:20:36;100247.75;;;30.40;46.11
78117;BME280;69042;59.120;37.904;2023-08-07T10:23:10;100249.59;;;30.39;46.40
78117;BME280;69042;59.120;37.904;2023-08-07T10:25:39;100237.81;;;30.40;46.39
78117;BME280;69042;59.120;37.904;2023-08-07T10:28:10;100239.72;;;30.46;47.04
78117;BME280;69042;59.120;37.904;2023-08-07T10:30:38;100238.13;;;30.52;46.65
78117;BME280;69042;59.120;37.904;2023-08-07T10:33:07;100228.00;;;30.54;46.39
78117;BME280;69042;59.120;37.904;2023-08-07T10:35:35;100236.34;;;30.59;46.15
78117;BME280;69042;59.120;37.904;2023-08-07T10:38:09;100232.22;;;30.63;46.72
78117;BME280;69042;59.120;37.904;2023-08-07T10:40:58;100229.78;;;30.68;46.37
78117;BME280;69042;59.120;37.904;2023-08-07T10:43:25;100234.59;;;30.73;46.88
78117;BME280;69042;59.120;37.904;2023-08-07T10:46:04;100226.13;;;30.76;46.93
78117;BME280;69042;59.120;37.904;2023-08-07T10:48:40;100229.91;;;30.82;46.67
78117;BME280;69042;59.120;37.904;2023-08-07T10:51:07;100225.66;;;30.87;46.61
78117;BME280;69042;59.120;37.904;2023-08-07T10:53:43;100225.47;;;30.96;46.69
78117;BME280;69042;59.120;37.904;2023-08-07T10:56:16;100213.31;;;31.06;46.45
78117;BME280;69042;59.120;37.904;2023-08-07T10:58:49;100216.31;;;31.18;46.54
78117;BME280;69042;59.120;37.904;2023-08-07T11:01:50;100211.84;;;31.32;46.39
78117;BME280;69042;59.120;37.904;2023-08-07T11:04:11;100203.69;;;31.53;45.77
78117;BME280;69042;59.120;37.904;2023-08-07T11:06:39;100195.28;;;31.77;44.99
78117;BME280;69042;59.120;37.904;2023-08-07T11:09:08;100187.72;;;32.00;44.91
78117;BME280;69042;59.120;37.904;2023-08-07T11:11:39;100195.91;;;32.27;45.27
78117;BME280;69042;59.120;37.904;2023-08-07T11:14:06;100189.94;;;32.58;44.69
78117;BME280;69042;59.120;37.904;2023-08-07T11:16:36;100183.28;;;32.94;44.16
78117;BME280;69042;59.120;37.904;2023-08-07T11:19:03;100181.19;;;33.29;43.59
78117;BME280;69042;59.120;37.904;2023-08-07T11:21:31;100177.75;;;33.67;43.07
78117;BME280;69042;59.120;37.904;2023-08-07T11:23:58;100183.41;;;34.04;42.30
78117;BME280;69042;59.120;37.904;2023-08-07T11:26:24;100172.78;;;34.41;41.88
78117;BME280;69042;59.120;37.904;2023-08-07T11:28:52;100176.41;;;34.85;41.41
78117;BME280;69042;59.120;37.904;2023-08-07T11:31:18;100174.50;;;35.36;40.41
78117;BME280;69042;59.120;37.904;2023-08-07T11:33:45;100186.19;;;35.92;39.60
78117;BME280;69042;59.120;37.904;2023-08-07T11:36:12;100178.19;;;36.39;39.22
78117;BME280;69042;59.120;37.904;2023-08-07T11:38:40;100179.59;;;36.83;40.21
78117;BME280;69042;59.120;37.904;2023-08-07T11:41:07;100173.38;;;37.47;39.05
78117;BME280;69042;59.120;37.904;2023-08-07T11:43:34;100162.38;;;38.23;37.51
78117;BME280;69042;59.120;37.904;2023-08-07T11:46:06;100163.09;;;39.20;36.59
78117;BME280;69042;59.120;37.904;2023-08-07T11:48:34;100158.16;;;40.10;34.65
78117;BME280;69042;59.120;37.904;2023-08-07T11:51:02;100150.09;;;40.90;33.46
78117;BME280;69042;59.120;37.904;2023-08-07T11:53:33;100149.38;;;41.57;32.56
78117;BME280;69042;59.120;37.904;2023-08-07T11:56:11;100142.34;;;42.28;31.77
78117;BME280;69042;59.120;37.904;2023-08-07T11:58:40;100139.28;;;42.96;33.30
78117;BME280;69042;59.120;37.904;2023-08-07T12:01:12;100140.69;;;43.59;30.66
78117;BME280;69042;59.120;37.904;2023-08-07T12:03:49;100136.81;;;44.15;29.61
78117;BME280;69042;59.120;37.904;2023-08-07T12:06:16;100136.84;;;44.73;28.96
78117;BME280;69042;59.120;37.904;2023-08-07T12:08:42;100132.31;;;45.36;27.60
78117;BME280;69042;59.120;37.904;2023-08-07T12:11:12;100124.03;;;45.92;26.56
78117;BME280;69042;59.120;37.904;2023-08-07T12:13:40;100123.63;;;46.37;25.57
78117;BME280;69042;59.120;37.904;2023-08-07T12:16:07;100121.44;;;46.81;26.00
78117;BME280;69042;59.120;37.904;2023-08-07T12:18:45;100117.34;;;47.33;24.76
78117;BME280;69042;59.120;37.904;2023-08-07T12:21:14;100117.50;;;47.87;24.30
78117;BME280;69042;59.120;37.904;2023-08-07T12:23:41;100123.31;;;48.22;24.24
78117;BME280;69042;59.120;37.904;2023-08-07T12:26:08;100119.34;;;48.68;23.72
78117;BME280;69042;59.120;37.904;2023-08-07T12:28:34;100120.47;;;48.98;22.69
78117;BME280;69042;59.120;37.904;2023-08-07T12:31:01;100117.53;;;49.04;23.97
78117;BME280;69042;59.120;37.904;2023-08-07T12:33:31;100113.63;;;49.13;22.59
78117;BME280;69042;59.120;37.904;2023-08-07T12:35:58;100108.75;;;49.19;22.24
78117;BME280;69042;59.120;37.904;2023-08-07T12:38:24;100112.06;;;49.47;23.21
78117;BME280;69042;59.120;37.904;2023-08-07T12:40:51;100104.56;;;49.83;22.13
78117;BME280;69042;59.120;37.904;2023-08-07T12:43:18;100099.81;;;50.00;23.06
78117;BME280;69042;59.120;37.904;2023-08-07T12:45:44;100099.16;;;50.04;21.62
78117;BME280;69042;59.120;37.904;2023-08-07T12:48:11;100093.63;;;49.86;21.37
78117;BME280;69042;59.120;37.904;2023-08-07T12:50:37;100094.13;;;49.71;21.13
78117;BME280;69042;59.120;37.904;2023-08-07T12:53:04;100085.94;;;49.39;20.94
78117;BME280;69042;59.120;37.904;2023-08-07T12:55:31;100087.19;;;49.25;21.54